Time;durP1;ratioP1;P1;durP2;ratioP2;P2;SDS_P1;SDS_P2;PMS_P1;PMS_P2;Temp;Humidity;BMP_temperature;BMP_pressure;BME280_temperature;BME280_humidity;BME280_pressure;Samples;Min_cycle;Max_cycle;Signal;HPM_P1;HPM_P2
2022/10/25 00:01:26;;;;;;;1.67;1.13;;;13.90;99.90;;;14.33;nan;100652.72;4993647;28;20614;-64
2022/10/25 00:03:53;;;;;;;0.97;0.97;;;14.00;99.90;;;14.38;nan;100653.13;4995425;28;20646;-65
2022/10/25 00:06:21;;;;;;;1.03;0.97;;;14.00;99.90;;;14.37;nan;100651.47;4992160;28;21202;-65
2022/10/25 00:08:49;;;;;;;3.47;1.10;;;13.90;99.90;;;14.30;nan;100655.59;4993632;28;20664;-69
2022/10/25 00:11:27;;;;;;;0.80;0.80;;;13.90;99.90;;;14.24;nan;100656.94;4976934;28;20635;-67
2022/10/25 00:13:58;;;;;;;1.00;0.87;;;13.90;99.90;;;14.10;nan;100648.59;4975109;28;20694;-68
2022/10/25 00:16:31;;;;;;;3.23;0.80;;;13.80;99.90;;;13.99;nan;100650.31;4990760;28;20649;-65
2022/10/25 00:18:58;;;;;;;0.93;0.93;;;13.80;99.90;;;13.91;nan;100642.28;4975203;28;20690;-68
2022/10/25 00:21:25;;;;;;;0.50;0.50;;;13.70;99.90;;;13.88;nan;100650.41;4989646;28;20641;-65
2022/10/25 00:23:52;;;;;;;0.40;0.40;;;13.70;99.90;;;13.94;nan;100651.69;5008773;28;21030;-65
2022/10/25 00:26:20;;;;;;;0.50;0.50;;;13.70;99.90;;;13.88;nan;100654.84;4993303;28;20992;-64
2022/10/25 00:28:47;;;;;;;1.00;0.90;;;13.60;99.90;;;13.84;nan;100653.44;4993347;28;20642;-68
2022/10/25 00:31:16;;;;;;;0.50;0.50;;;13.60;99.90;;;13.74;nan;100648.13;4992222;28;20618;-65
2022/10/25 00:33:44;;;;;;;1.13;0.70;;;13.50;99.90;;;13.82;nan;100648.31;4991845;28;20662;-66
2022/10/25 00:36:22;;;;;;;0.60;0.60;;;13.50;99.90;;;13.85;nan;100647.22;4993823;28;20636;-65
2022/10/25 00:38:49;;;;;;;0.50;0.50;;;13.60;99.90;;;13.71;nan;100651.03;4980515;28;20693;-67
2022/10/25 00:41:20;;;;;;;0.50;0.43;;;13.50;99.90;;;13.85;nan;100655.09;4993964;28;20634;-65
2022/10/25 00:44:15;;;;;;;2.17;0.67;;;13.50;99.90;;;13.73;nan;100656.16;4986791;28;21338;-68
2022/10/25 00:46:43;;;;;;;1.27;1.00;;;13.50;99.90;;;13.78;nan;100648.69;4973529;28;20696;-66
2022/10/25 00:49:18;;;;;;;0.50;0.50;;;13.50;99.90;;;13.74;nan;100649.91;4983312;28;20657;-65
2022/10/25 00:51:59;;;;;;;0.73;0.70;;;13.40;99.90;;;13.83;nan;100649.16;4992560;28;20976;-65
2022/10/25 00:54:42;;;;;;;0.60;0.60;;;13.50;99.90;;;13.87;nan;100650.53;4992788;28;20681;-65
2022/10/25 00:57:20;;;;;;;1.97;0.60;;;13.50;99.90;;;13.71;nan;100664.16;4992471;28;20998;-65
2022/10/25 00:59:48;;;;;;;0.50;0.50;;;13.50;99.90;;;13.70;nan;100667.72;4991604;28;20666;-66
2022/10/25 01:02:17;;;;;;;0.60;0.60;;;13.50;99.90;;;13.68;nan;100666.19;4992144;28;21002;-65
2022/10/25 01:04:44;;;;;;;0.70;0.70;;;13.50;99.90;;;13.69;nan;100671.28;4991326;28;21265;-65
2022/10/25 01:07:11;;;;;;;1.93;0.63;;;13.40;99.90;;;13.74;nan;100674.38;4991516;28;20639;-65
2022/10/25 01:09:39;;;;;;;0.50;0.50;;;13.40;99.90;;;13.73;nan;100671.88;4989009;28;20636;-67
2022/10/25 01:12:06;;;;;;;1.23;0.50;;;13.40;99.90;;;13.69;nan;100675.72;4992736;28;20643;-65
2022/10/25 01:14:35;;;;;;;0.77;0.77;;;13.40;99.90;;;13.66;nan;100663.69;4992793;28;20658;-66
2022/10/25 01:17:27;;;;;;;11.43;0.80;;;13.40;99.90;;;13.70;nan;100670.34;4992606;28;20635;-65
2022/10/25 01:20:12;;;;;;;0.60;0.60;;;13.40;99.90;;;13.83;nan;100670.97;4991450;28;21242;-67
2022/10/25 01:22:42;;;;;;;2.23;0.90;;;13.40;99.90;;;13.70;nan;100670.34;4991929;28;21019;-65
2022/10/25 01:25:27;;;;;;;0.70;0.60;;;13.40;99.90;;;13.86;nan;100672.50;4992362;28;21004;-64
2022/10/25 01:28:07;;;;;;;0.60;0.60;;;13.40;99.90;;;13.76;nan;100663.72;4985671;28;21261;-65
2022/10/25 01:31:22;;;;;;;0.60;0.60;;;13.50;99.90;;;13.69;nan;100667.84;4971873;28;20619;-65
2022/10/25 01:33:57;;;;;;;6.30;1.10;;;13.40;99.90;;;13.61;nan;100665.03;4986901;28;20717;-63
2022/10/25 01:36:56;;;;;;;0.70;0.57;;;13.40;99.90;;;13.73;nan;100671.88;4990653;28;20638;-64
2022/10/25 01:39:40;;;;;;;0.80;0.60;;;13.40;99.90;;;13.65;nan;100667.25;4990497;28;20666;-65
2022/10/25 01:42:35;;;;;;;1.00;0.60;;;13.40;99.90;;;13.61;nan;100668.47;4992567;28;21128;-65
2022/10/25 01:45:40;;;;;;;1.03;0.70;;;13.40;99.90;;;13.73;nan;100675.34;4983044;28;20669;-64
2022/10/25 01:48:20;;;;;;;0.60;0.60;;;13.40;99.90;;;13.86;nan;100673.31;4990870;28;21227;-65
2022/10/25 01:50:48;;;;;;;0.40;0.40;;;13.40;99.90;;;13.72;nan;100660.56;4989106;28;20630;-65
2022/10/25 01:53:14;;;;;;;0.80;0.80;;;13.40;99.90;;;13.66;nan;100661.06;4991901;28;20635;-67
2022/10/25 01:55:58;;;;;;;0.63;0.50;;;13.30;99.90;;;13.79;nan;100666.13;4991623;28;20684;-64
2022/10/25 01:59:09;;;;;;;1.57;0.60;;;13.40;99.90;;;13.65;nan;100662.03;4972558;28;20620;-67
2022/10/25 02:02:07;;;;;;;0.60;0.60;;;13.40;99.90;;;13.65;nan;100663.84;4978515;28;20739;-64
2022/10/25 02:05:16;;;;;;;1.23;0.70;;;13.30;99.90;;;13.84;nan;100663.94;4990484;28;21217;-64
2022/10/25 02:08:12;;;;;;;0.70;0.67;;;13.40;99.90;;;13.52;nan;100665.81;4990573;28;21026;-66
2022/10/25 02:11:23;;;;;;;0.50;0.50;;;13.30;99.90;;;13.51;nan;100667.59;4991284;28;20634;-64
2022/10/25 02:14:18;;;;;;;0.90;0.90;;;13.30;99.90;;;13.63;nan;100668.38;4958663;28;20636;-65
2022/10/25 02:17:05;;;;;;;1.07;0.67;;;13.30;99.90;;;13.56;nan;100673.31;4987066;28;20641;-68
2022/10/25 02:19:40;;;;;;;0.57;0.57;;;13.30;99.90;;;13.69;nan;100668.66;4989314;28;21250;-64
2022/10/25 02:22:09;;;;;;;0.90;0.70;;;13.30;99.90;;;13.80;nan;100667.75;4990090;28;21181;-67
2022/10/25 02:24:38;;;;;;;0.60;0.60;;;13.30;99.90;;;13.65;nan;100662.03;4989782;28;20643;-65
2022/10/25 02:27:07;;;;;;;0.70;0.70;;;13.30;99.90;;;13.65;nan;100675.13;4991503;28;21207;-67
2022/10/25 02:29:35;;;;;;;0.50;0.50;;;13.30;99.90;;;13.57;nan;100669.69;4991288;28;20619;-65
2022/10/25 02:32:03;;;;;;;3.43;0.73;;;13.30;99.90;;;13.40;nan;100665.03;4991786;28;20645;-65
2022/10/25 02:34:32;;;;;;;0.60;0.60;;;13.20;99.90;;;13.48;nan;100667.84;4990619;28;21090;-68
2022/10/25 02:36:59;;;;;;;1.00;0.47;;;13.20;99.90;;;13.49;nan;100664.28;4977545;28;21182;-64
2022/10/25 02:39:28;;;;;;;0.97;0.67;;;13.30;99.90;;;13.41;nan;100656.22;4990172;28;21226;-65
2022/10/25 02:41:57;;;;;;;0.60;0.60;;;13.20;99.90;;;13.39;nan;100663.38;4990775;28;20635;-62
2022/10/25 02:44:24;;;;;;;2.63;0.70;;;13.20;99.90;;;13.50;nan;100654.63;4988162;28;20670;-65
2022/10/25 02:46:51;;;;;;;0.87;0.70;;;13.20;99.90;;;13.50;nan;100657.25;4986003;28;20635;-65
2022/10/25 02:49:18;;;;;;;2.23;0.63;;;13.20;99.90;;;13.48;nan;100652.13;4989609;28;20625;-64
2022/10/25 02:51:45;;;;;;;4.83;0.80;;;13.20;99.90;;;13.47;nan;100647.84;4989881;28;21264;-65
2022/10/25 02:54:12;;;;;;;0.77;0.77;;;13.20;99.90;;;13.39;nan;100666.00;4985997;28;20668;-65
2022/10/25 02:56:39;;;;;;;0.77;0.77;;;13.10;99.90;;;13.44;nan;100669.06;4986767;28;21009;-64
2022/10/25 02:59:06;;;;;;;0.70;0.70;;;13.10;99.90;;;13.45;nan;100662.88;4990789;28;20629;-66
2022/10/25 03:01:33;;;;;;;1.07;0.90;;;13.10;99.90;;;13.48;nan;100673.09;4990861;28;20635;-65
2022/10/25 03:04:00;;;;;;;0.80;0.80;;;13.20;99.90;;;13.58;nan;100663.50;4991925;28;20661;-67
2022/10/25 03:06:27;;;;;;;4.40;0.63;;;13.20;99.90;;;13.57;nan;100672.31;4991305;28;20618;-63
2022/10/25 03:08:54;;;;;;;3.63;0.97;;;13.20;99.90;;;13.65;nan;100664.63;4991189;28;20623;-64
2022/10/25 03:11:20;;;;;;;2.20;1.10;;;13.20;99.90;;;13.46;nan;100664.50;4991963;28;21178;-65
2022/10/25 03:13:47;;;;;;;1.67;0.90;;;13.20;99.90;;;13.57;nan;100661.00;4980763;28;20682;-65
2022/10/25 03:16:14;;;;;;;1.53;0.80;;;13.20;99.90;;;13.50;nan;100665.13;4988173;28;20638;-66
2022/10/25 03:18:41;;;;;;;2.40;0.80;;;13.20;99.90;;;13.62;nan;100666.69;4988361;28;20646;-66
2022/10/25 03:21:08;;;;;;;0.70;0.70;;;13.20;99.90;;;13.67;nan;100675.03;4990288;28;20662;-66
2022/10/25 03:23:35;;;;;;;0.80;0.80;;;13.30;99.90;;;13.58;nan;100684.50;4997070;28;20700;-65
2022/10/25 03:26:02;;;;;;;0.60;0.60;;;13.30;99.90;;;13.63;nan;100674.44;4992536;28;20633;-64
2022/10/25 03:28:30;;;;;;;0.97;0.70;;;13.30;99.90;;;13.53;nan;100681.41;4994269;28;20688;-65
2022/10/25 03:30:59;;;;;;;0.83;0.83;;;13.30;99.90;;;13.65;nan;100680.38;4993079;28;21209;-65
2022/10/25 03:33:26;;;;;;;0.80;0.80;;;13.30;99.90;;;13.73;nan;100682.38;5008847;28;20637;-65
2022/10/25 03:35:54;;;;;;;2.33;0.70;;;13.30;99.90;;;13.78;nan;100688.03;4993877;28;20644;-64
2022/10/25 03:38:24;;;;;;;1.00;0.73;;;13.40;99.90;;;13.69;nan;100680.97;4988706;28;20634;-64
2022/10/25 03:40:52;;;;;;;7.63;1.00;;;13.40;99.90;;;13.90;nan;100680.00;4995026;28;20655;-64
2022/10/25 03:43:22;;;;;;;0.90;0.90;;;13.40;99.90;;;13.85;nan;100687.41;4990633;28;20641;-66
2022/10/25 03:45:49;;;;;;;0.67;0.67;;;13.40;99.90;;;13.75;nan;100690.94;4988973;28;20638;-65
2022/10/25 03:48:16;;;;;;;1.87;1.00;;;13.40;99.90;;;13.73;nan;100693.69;4984290;28;20636;-67
2022/10/25 03:50:48;;;;;;;0.70;0.70;;;13.40;99.90;;;13.84;nan;100698.03;4993903;28;20630;-65
2022/10/25 03:53:15;;;;;;;0.80;0.63;;;13.40;99.90;;;13.81;nan;100696.50;4994821;28;20696;-65
2022/10/25 03:55:42;;;;;;;1.63;0.60;;;13.40;99.90;;;13.77;nan;100700.34;4995925;28;20646;-65
2022/10/25 03:58:12;;;;;;;0.70;0.70;;;13.40;99.90;;;13.72;nan;100697.25;4993999;28;20642;-67
2022/10/25 04:00:40;;;;;;;3.47;1.00;;;13.40;99.90;;;13.53;nan;100707.63;4994743;28;20654;-65
2022/10/25 04:03:08;;;;;;;0.80;0.80;;;13.30;99.90;;;13.56;nan;100696.91;4993625;28;21268;-65
2022/10/25 04:05:38;;;;;;;0.50;0.50;;;13.30;99.90;;;13.46;nan;100695.16;4994748;28;20666;-66
2022/10/25 04:08:05;;;;;;;0.80;0.80;;;13.20;99.90;;;13.42;nan;100691.94;4994022;28;20618;-68
2022/10/25 04:10:35;;;;;;;0.60;0.60;;;13.20;99.90;;;13.67;nan;100694.19;4992790;28;21252;-66
2022/10/25 04:13:03;;;;;;;0.93;0.60;;;13.20;99.90;;;13.61;nan;100694.69;4994612;28;21202;-65
2022/10/25 04:15:32;;;;;;;4.53;0.70;;;13.30;99.90;;;13.56;nan;100696.91;4986937;28;21313;-66
2022/10/25 04:18:02;;;;;;;5.07;1.10;;;13.20;99.90;;;13.72;nan;100697.25;4989959;28;20635;-63
2022/10/25 04:20:29;;;;;;;2.27;0.93;;;13.30;99.90;;;13.68;nan;100700.25;4993579;28;20674;-65
2022/10/25 04:22:56;;;;;;;5.27;0.93;;;13.30;99.90;;;13.75;nan;100697.00;4994025;28;20970;-67
2022/10/25 04:25:25;;;;;;;1.10;1.10;;;13.30;99.90;;;13.77;nan;100704.75;4993395;28;20658;-64
2022/10/25 04:27:53;;;;;;;0.73;0.73;;;13.30;99.90;;;13.71;nan;100710.50;4994024;28;20630;-65
2022/10/25 04:30:20;;;;;;;0.87;0.70;;;13.30;99.90;;;13.85;nan;100712.78;4991589;28;21244;-65
2022/10/25 04:32:47;;;;;;;0.97;0.97;;;13.30;99.90;;;13.68;nan;100708.13;5002491;28;20631;-64
2022/10/25 04:35:14;;;;;;;4.30;1.00;;;13.30;99.90;;;13.64;nan;100697.06;4992066;28;20670;-66
2022/10/25 04:37:41;;;;;;;0.63;0.63;;;13.20;99.90;;;13.65;nan;100701.34;4993824;28;20634;-65
2022/10/25 04:40:09;;;;;;;0.80;0.80;;;13.30;99.90;;;13.56;nan;100710.00;4992841;28;20674;-65
2022/10/25 04:42:36;;;;;;;0.77;0.77;;;13.20;99.90;;;13.49;nan;100713.25;4992617;28;20641;-65
2022/10/25 04:45:03;;;;;;;0.80;0.80;;;13.20;99.90;;;13.52;nan;100707.75;4993302;28;21033;-64
2022/10/25 04:47:31;;;;;;;1.07;0.97;;;13.10;99.90;;;13.56;nan;100710.00;4992564;28;20642;-66
2022/10/25 04:49:58;;;;;;;0.60;0.60;;;13.20;99.90;;;13.54;nan;100708.47;4992989;28;20707;-69
2022/10/25 04:52:27;;;;;;;0.77;0.77;;;13.20;99.90;;;13.72;nan;100706.91;4992433;28;20639;-65
2022/10/25 04:54:55;;;;;;;2.07;1.03;;;13.20;99.90;;;13.62;nan;100706.88;4992411;28;20673;-68
2022/10/25 04:57:22;;;;;;;1.50;1.00;;;13.20;99.90;;;13.74;nan;100705.84;4992618;28;20627;-65
2022/10/25 04:59:49;;;;;;;1.10;1.00;;;13.20;99.90;;;13.64;nan;100710.19;5007863;28;20618;-66
2022/10/25 05:02:16;;;;;;;5.37;1.10;;;13.20;99.90;;;13.66;nan;100717.91;5003455;28;20639;-66
2022/10/25 05:04:42;;;;;;;4.67;1.33;;;13.20;99.90;;;13.66;nan;100710.88;4973442;28;20636;-67
2022/10/25 05:07:09;;;;;;;1.13;0.90;;;13.20;99.90;;;13.74;nan;100711.06;4987225;28;20645;-65
2022/10/25 05:09:36;;;;;;;0.80;0.80;;;13.30;99.90;;;13.58;nan;100709.88;4989579;28;20635;-64
2022/10/25 05:12:04;;;;;;;0.37;0.37;;;13.20;99.90;;;13.50;nan;100720.97;4991839;28;20631;-65
2022/10/25 05:14:30;;;;;;;0.70;0.70;;;13.20;99.90;;;13.13;nan;100725.78;4993305;28;20639;-67
2022/10/25 05:16:57;;;;;;;1.10;1.10;;;13.00;99.90;;;13.05;nan;100728.16;4992006;28;21041;-65
2022/10/25 05:19:25;;;;;;;2.40;1.10;;;12.90;99.90;;;13.18;nan;100731.47;4992081;28;21027;-65
2022/10/25 05:21:51;;;;;;;7.23;1.00;;;12.90;99.90;;;13.14;nan;100739.69;4992316;28;20662;-65
2022/10/25 05:24:18;;;;;;;1.10;0.97;;;12.90;99.90;;;13.15;nan;100729.13;4992834;28;20646;-65
2022/10/25 05:26:45;;;;;;;2.67;1.13;;;12.80;99.90;;;13.08;nan;100740.19;4990858;28;20635;-65
2022/10/25 05:29:12;;;;;;;3.00;1.40;;;12.90;99.90;;;13.31;nan;100744.41;4992561;28;21159;-64
2022/10/25 05:31:40;;;;;;;1.50;1.07;;;12.90;99.90;;;13.36;nan;100744.88;4992107;28;20648;-66
2022/10/25 05:34:08;;;;;;;2.67;0.90;;;12.90;99.90;;;13.31;nan;100739.16;4992628;28;20662;-67
2022/10/25 05:36:35;;;;;;;1.30;1.20;;;13.00;99.90;;;13.25;nan;100742.28;4990946;28;20621;-67
2022/10/25 05:39:02;;;;;;;1.30;1.20;;;12.90;99.90;;;13.38;nan;100737.72;4986808;28;20638;-66
2022/10/25 05:41:29;;;;;;;3.57;1.50;;;12.90;99.90;;;13.35;nan;100743.22;4992550;28;20724;-67
2022/10/25 05:43:59;;;;;;;2.63;1.40;;;13.00;99.90;;;13.29;nan;100741.06;4991901;28;20701;-66
2022/10/25 05:46:26;;;;;;;0.80;0.80;;;13.00;99.90;;;12.99;nan;100733.88;4991973;28;20633;-66
2022/10/25 05:48:53;;;;;;;0.87;0.87;;;12.90;99.90;;;12.94;nan;100735.22;4990629;28;21271;-65
2022/10/25 05:51:27;;;;;;;7.13;1.10;;;12.80;99.90;;;13.07;nan;100743.78;4992001;28;20630;-65
2022/10/25 05:54:02;;;;;;;3.73;1.00;;;12.80;99.90;;;13.03;nan;100742.34;4991270;28;20658;-69
2022/10/25 05:56:31;;;;;;;1.87;1.27;;;12.80;99.90;;;13.01;nan;100742.44;4988615;28;20619;-65
2022/10/25 05:59:03;;;;;;;1.20;1.10;;;12.70;99.90;;;12.99;nan;100743.53;4971880;28;20713;-66
2022/10/25 06:01:30;;;;;;;1.17;1.03;;;12.70;99.90;;;12.85;nan;100738.56;4991715;28;20667;-67
2022/10/25 06:03:57;;;;;;;0.87;0.87;;;12.70;99.90;;;12.64;nan;100748.94;4991561;28;20647;-65
2022/10/25 06:06:24;;;;;;;2.07;1.63;;;12.60;99.90;;;12.82;nan;100752.72;4991750;28;20635;-67
2022/10/25 06:08:56;;;;;;;2.20;1.50;;;12.60;99.90;;;12.93;nan;100754.47;4991333;28;20696;-65
2022/10/25 06:11:25;;;;;;;3.40;1.37;;;12.60;99.90;;;12.86;nan;100759.38;4990626;28;20692;-65
2022/10/25 06:13:52;;;;;;;3.97;1.20;;;12.60;99.90;;;12.93;nan;100759.72;4991413;28;21246;-65
2022/10/25 06:16:20;;;;;;;1.40;1.27;;;12.60;99.90;;;12.83;nan;100759.63;4991541;28;20641;-65
2022/10/25 06:18:47;;;;;;;1.50;1.40;;;12.60;99.90;;;13.06;nan;100769.13;4991424;28;20615;-66
2022/10/25 06:21:26;;;;;;;0.93;0.93;;;12.60;99.90;;;13.15;nan;100770.19;4991030;28;20675;-67
2022/10/25 06:23:55;;;;;;;4.70;1.40;;;12.70;99.90;;;13.27;nan;100771.00;4991459;28;20709;-65
2022/10/25 06:26:26;;;;;;;2.27;1.40;;;12.80;99.90;;;13.16;nan;100780.53;4991509;28;20623;-65
2022/10/25 06:28:59;;;;;;;2.47;1.20;;;12.80;99.90;;;13.19;nan;100782.94;4991011;28;20638;-66
2022/10/25 06:31:27;;;;;;;1.90;1.10;;;12.80;99.90;;;13.27;nan;100790.16;4989905;28;20637;-68
2022/10/25 06:33:54;;;;;;;3.20;1.20;;;12.90;99.90;;;13.18;nan;100785.69;4990810;28;20688;-65
2022/10/25 06:36:23;;;;;;;1.33;1.30;;;12.90;99.90;;;13.33;nan;100797.53;4991611;28;20622;-64
2022/10/25 06:38:50;;;;;;;2.40;1.43;;;12.90;99.90;;;13.47;nan;100791.16;4990745;28;20681;-64
2022/10/25 06:41:23;;;;;;;0.93;0.93;;;13.00;99.90;;;13.37;nan;100798.97;4988890;28;20671;-62
2022/10/25 06:43:51;;;;;;;1.57;1.30;;;13.00;99.90;;;13.60;nan;100794.47;4990766;28;20658;-65
2022/10/25 06:46:29;;;;;;;1.17;1.10;;;13.10;99.90;;;13.69;nan;100788.47;4990696;28;20619;-65
2022/10/25 06:48:57;;;;;;;2.73;0.93;;;13.10;99.90;;;14.14;nan;100799.56;4988290;28;20639;-66
2022/10/25 06:51:26;;;;;;;4.07;1.70;;;13.40;99.90;;;15.24;nan;100800.44;4984015;28;20635;-65
2022/10/25 06:54:01;;;;;;;1.87;1.60;;;14.00;99.90;;;16.32;nan;100794.88;4990031;28;20666;-65
2022/10/25 06:56:28;;;;;;;4.53;1.70;;;14.70;99.90;;;16.09;nan;100810.16;4990611;28;20648;-66
2022/10/25 06:58:55;;;;;;;2.60;1.83;;;15.00;99.90;;;15.23;nan;100815.38;4990267;28;20639;-65
2022/10/25 07:01:24;;;;;;;8.03;2.00;;;14.90;99.90;;;15.12;nan;100818.09;4988889;28;20666;-63
2022/10/25 07:03:53;;;;;;;2.50;1.70;;;14.70;99.90;;;15.16;nan;100827.38;4989949;28;20701;-68
2022/10/25 07:06:26;;;;;;;2.93;2.00;;;14.70;99.90;;;15.59;nan;100834.16;4987440;28;20637;-66
2022/10/25 07:08:57;;;;;;;1.87;1.67;;;14.80;99.90;;;16.32;nan;100842.25;4989210;28;20642;-66
2022/10/25 07:11:27;;;;;;;1.90;1.80;;;15.20;99.90;;;17.24;nan;100837.91;4984228;28;20661;-65
2022/10/25 07:13:57;;;;;;;2.77;1.40;;;15.80;99.90;;;17.61;nan;100839.47;4975314;28;20656;-65
2022/10/25 07:16:25;;;;;;;5.57;1.73;;;16.20;99.90;;;17.62;nan;100840.31;4998446;28;20639;-65
2022/10/25 07:18:57;;;;;;;1.67;1.57;;;16.40;99.90;;;18.13;nan;100840.44;4984832;28;20641;-66
2022/10/25 07:21:24;;;;;;;4.00;2.03;;;16.70;99.90;;;19.56;nan;100848.44;4989783;28;20678;-65
2022/10/25 07:23:51;;;;;;;3.67;1.80;;;17.50;99.90;;;21.09;nan;100853.63;4990205;28;20662;-66
2022/10/25 07:26:24;;;;;;;1.70;1.60;;;18.50;99.90;;;22.30;nan;100860.78;4989221;28;20696;-66
2022/10/25 07:28:53;;;;;;;3.47;1.60;;;19.40;99.90;;;23.37;nan;100861.09;4989067;28;20671;-65
2022/10/25 07:31:28;;;;;;;5.00;1.90;;;20.40;99.90;;;23.53;nan;100857.41;4989843;28;20700;-67
2022/10/25 07:33:58;;;;;;;1.47;1.37;;;21.00;99.90;;;23.37;nan;100861.09;4987469;28;20661;-65
2022/10/25 07:36:26;;;;;;;5.07;2.00;;;21.10;99.90;;;23.53;nan;100855.53;5005322;28;20638;-66
2022/10/25 07:38:53;;;;;;;3.20;2.10;;;21.30;99.90;;;24.39;nan;100855.34;4990265;28;20630;-66
2022/10/25 07:41:20;;;;;;;2.30;1.67;;;21.80;99.90;;;25.41;nan;100861.63;4991213;28;21237;-65
2022/10/25 07:43:47;;;;;;;1.97;1.53;;;22.50;99.90;;;26.82;nan;100852.31;4990764;28;20660;-64
2022/10/25 07:46:14;;;;;;;2.20;1.50;;;23.50;99.90;;;;;;4979029;28;20641;-70
2022/10/25 07:48:41;;;;;;;3.93;2.00;;;24.60;99.90;;;;;;4981391;28;21194;-65
2022/10/25 07:51:11;;;;;;;2.07;1.57;;;25.50;99.10;;;;;;4990126;28;20693;-70
2022/10/25 07:53:38;;;;;;;2.83;2.10;;;26.50;96.80;;;;;;4988676;28;20646;-69
2022/10/25 07:56:06;;;;;;;4.30;3.07;;;27.20;94.20;;;;;;4985367;28;20659;-65
2022/10/25 07:58:33;;;;;;;4.20;2.60;;;26.70;93.10;;;;;;4979186;28;20616;-67
2022/10/25 08:01:07;;;;;;;11.50;1.97;;;25.60;94.00;;;24.64;nan;100869.03;4986987;28;20658;-67
2022/10/25 08:03:34;;;;;;;4.37;2.27;;;24.20;96.00;;;23.09;nan;100865.44;4989503;28;20626;-67
2022/10/25 08:06:01;;;;;;;3.33;1.80;;;22.90;98.40;;;22.19;nan;100871.88;4982375;28;20636;-67
2022/10/25 08:08:29;;;;;;;2.83;1.13;;;21.90;99.90;;;24.02;nan;100879.63;4987343;28;20650;-66
2022/10/25 08:10:56;;;;;;;5.13;1.63;;;22.00;99.90;;;25.36;nan;100874.78;4989858;28;21008;-65
2022/10/25 08:13:23;;;;;;;2.00;1.20;;;22.90;99.90;;;24.23;nan;100876.97;4992028;28;20697;-65
2022/10/25 08:15:52;;;;;;;1.70;1.27;;;22.70;99.90;;;23.63;nan;100884.53;4993259;28;20627;-66
2022/10/25 08:18:20;;;;;;;2.80;1.37;;;22.30;99.90;;;22.95;nan;100871.59;4993777;28;20620;-65
2022/10/25 08:20:47;;;;;;;3.60;1.33;;;21.80;99.90;;;21.90;nan;100869.09;4991506;28;21283;-66
2022/10/25 08:23:28;;;;;;;5.10;1.60;;;21.30;99.90;;;20.94;nan;100873.88;4993611;28;20649;-65
2022/10/25 08:25:55;;;;;;;0.97;0.93;;;20.50;99.90;;;20.56;nan;100872.81;4992926;28;20634;-65
2022/10/25 08:28:22;;;;;;;1.60;1.00;;;20.00;99.90;;;19.93;nan;100877.94;4993294;28;21204;-65
2022/10/25 08:30:49;;;;;;;3.73;1.53;;;19.40;99.90;;;20.89;nan;100868.28;4993147;28;20641;-66
2022/10/25 08:33:16;;;;;;;1.53;1.43;;;19.60;99.90;;;21.87;nan;100877.44;4994095;28;20623;-65
2022/10/25 08:35:43;;;;;;;4.30;1.57;;;20.10;99.90;;;20.95;nan;100875.53;4993279;28;21010;-67
2022/10/25 08:38:10;;;;;;;2.00;1.37;;;20.10;99.90;;;20.10;nan;100879.59;4993650;28;20607;-65
2022/10/25 08:41:03;;;;;;;1.63;1.30;;;19.50;99.90;;;23.29;nan;100887.81;4991181;28;20638;-66
2022/10/25 08:43:58;;;;;;;2.20;1.30;;;20.60;99.90;;;23.26;nan;100882.84;4984411;28;20712;-62
2022/10/25 08:46:52;;;;;;;2.03;1.23;;;21.50;99.90;;;22.35;nan;100877.03;4991622;28;20627;-65
2022/10/25 08:49:36;;;;;;;5.57;1.40;;;21.40;99.90;;;21.08;nan;100881.16;4991510;28;20634;-65
2022/10/25 08:52:06;;;;;;;2.57;1.37;;;20.70;99.90;;;20.00;nan;100875.47;5003623;28;21194;-68
2022/10/25 08:54:38;;;;;;;5.50;1.73;;;19.90;99.90;;;19.69;nan;100880.56;4991749;28;20670;-64
2022/10/25 08:57:22;;;;;;;1.20;1.10;;;19.40;99.90;;;19.57;nan;100879.22;4989631;28;20641;-66
2022/10/25 08:59:56;;;;;;;1.43;1.27;;;19.20;99.90;;;20.92;nan;100880.34;4988061;28;20675;-65
2022/10/25 09:02:54;;;;;;;3.43;1.40;;;19.50;99.90;;;22.06;nan;100887.59;4984188;28;20667;-65
2022/10/25 09:05:40;;;;;;;1.00;0.93;;;20.30;99.90;;;22.22;nan;100884.78;4976722;28;20681;-65
2022/10/25 09:08:29;;;;;;;0.93;0.93;;;20.60;99.90;;;21.64;nan;100880.88;4992125;28;20638;-64
2022/10/25 09:11:27;;;;;;;1.60;1.40;;;20.50;99.90;;;22.07;nan;100887.41;4991911;28;20621;-65
2022/10/25 09:14:06;;;;;;;1.53;1.00;;;20.80;99.90;;;24.56;nan;100890.53;4986390;28;20646;-65
2022/10/25 09:16:52;;;;;;;2.67;1.20;;;21.70;99.90;;;29.32;nan;100892.34;4979562;28;20711;-64
2022/10/25 09:19:38;;;;;;;2.07;1.20;;;24.40;99.90;;;-141.50;100.00;62695.63;4974927;28;20635;-64
2022/10/25 09:22:25;;;;;;;1.30;0.90;;;26.30;98.90;;;-141.50;100.00;62695.63;4981741;28;21226;-64
2022/10/25 09:25:21;;;;;;;2.20;1.20;;;27.10;94.70;;;-141.50;0.00;62695.63;4992419;28;20638;-67
2022/10/25 09:28:05;;;;;;;2.20;1.10;;;27.60;93.10;;;-141.50;100.00;62695.63;4991363;28;20637;-64
2022/10/25 09:30:40;;;;;;;2.93;1.60;;;28.30;90.70;;;-141.50;100.00;62695.63;4991501;28;20653;-64
2022/10/25 09:33:15;;;;;;;1.93;1.10;;;29.40;86.00;;;;;;4991576;28;20637;-65
2022/10/25 09:35:52;;;;;;;1.30;1.10;;;30.70;80.80;;;-141.50;100.00;62695.63;4994546;28;21021;-65
2022/10/25 09:38:57;;;;;;;2.30;1.10;;;30.80;76.70;;;-141.50;100.00;62695.63;4991566;28;20627;-65
2022/10/25 09:41:32;;;;;;;1.77;1.37;;;30.10;76.10;;;-141.50;nan;62695.63;4992013;28;20717;-66
2022/10/25 09:44:28;;;;;;;1.30;1.20;;;30.50;75.00;;;-141.50;100.00;62695.63;4992082;28;20661;-65
2022/10/25 09:48:26;;;;;;;2.60;1.40;;;29.70;74.80;;;-141.50;100.00;62695.63;4988241;28;20693;-65
2022/10/25 09:51:21;;;;;;;3.30;1.30;;;27.30;79.20;;;;;;4938313;28;20636;-68
2022/10/25 09:53:48;;;;;;;2.60;1.30;;;25.50;86.00;;;;;;4937376;29;20644;-64
2022/10/25 09:56:16;;;;;;;1.40;1.10;;;24.90;89.60;;;;;;4976849;28;21238;-64
2022/10/25 09:58:46;;;;;;;1.57;1.20;;;24.30;91.10;;;;;;4992119;28;21187;-66
2022/10/25 10:01:27;;;;;;;1.20;1.10;;;24.60;91.70;;;;;;4991846;28;20681;-65
2022/10/25 10:04:01;;;;;;;1.60;1.23;;;24.90;92.00;;;;;;4992459;28;20649;-64
2022/10/25 10:06:32;;;;;;;1.37;1.10;;;25.50;91.00;;;;;;4985634;28;21005;-65
2022/10/25 10:09:03;;;;;;;3.50;1.10;;;25.70;90.50;;;;;;4991363;28;20694;-65
2022/10/25 10:11:31;;;;;;;2.57;1.47;;;25.20;90.70;;;24.25;nan;100892.75;4991529;28;20626;-64
2022/10/25 10:14:15;;;;;;;2.00;1.33;;;23.90;92.50;;;23.14;nan;100885.19;4991157;28;21172;-64
2022/10/25 10:16:47;;;;;;;0.90;0.70;;;23.00;94.70;;;22.19;nan;100888.63;4992313;28;20641;-65
2022/10/25 10:19:28;;;;;;;1.07;0.97;;;22.00;96.70;;;20.97;nan;100884.16;4991851;28;20647;-64
2022/10/25 10:22:09;;;;;;;1.80;1.10;;;21.00;99.90;;;20.98;nan;100880.47;4990785;28;20724;-65
2022/10/25 10:24:39;;;;;;;1.20;1.10;;;20.60;99.90;;;20.83;nan;100887.50;4983394;28;20650;-64
2022/10/25 10:27:09;;;;;;;1.20;1.10;;;20.30;99.90;;;20.96;nan;100887.78;4991456;28;20680;-64
2022/10/25 10:29:59;;;;;;;1.83;0.90;;;20.20;99.90;;;21.04;nan;100889.63;4991625;28;20645;-64
2022/10/25 10:32:32;;;;;;;1.10;0.70;;;20.20;99.90;;;20.81;nan;100882.38;4989591;28;21267;-65
2022/10/25 10:35:02;;;;;;;2.20;0.97;;;20.00;99.90;;;20.84;nan;100895.31;4990836;28;20662;-66
2022/10/25 10:37:31;;;;;;;5.40;1.30;;;20.00;99.90;;;20.70;nan;100884.53;4989940;28;21065;-64
2022/10/25 10:40:22;;;;;;;2.40;1.00;;;19.90;99.90;;;20.73;nan;100889.50;4972583;28;20619;-62
2022/10/25 10:42:49;;;;;;;1.03;0.80;;;19.90;99.90;;;20.86;nan;100890.66;4978018;28;20673;-63
2022/10/25 10:45:19;;;;;;;0.70;0.70;;;19.90;99.90;;;20.66;nan;100878.75;4988759;28;20658;-62
2022/10/25 10:47:48;;;;;;;2.77;0.87;;;19.90;99.90;;;20.30;nan;100874.00;4990801;28;21023;-64
2022/10/25 10:50:21;;;;;;;2.93;0.93;;;19.70;99.90;;;20.01;nan;100883.28;4991698;28;20631;-64
2022/10/25 10:53:08;;;;;;;2.50;1.03;;;19.50;99.90;;;20.02;nan;100884.06;4990933;28;20631;-64
2022/10/25 10:55:51;;;;;;;2.47;1.00;;;19.40;99.90;;;20.49;nan;100874.47;4988855;28;20671;-63
2022/10/25 10:58:24;;;;;;;2.00;1.03;;;19.50;99.90;;;20.96;nan;100877.19;4990305;28;20611;-63